Winnetka, California
Current Conditions -  °F | °C
As of 12:51 PM on Tuesday 21 Oct 2014 (Local Time) from KVNY Reporting Station
Scattered Clouds Scattered Clouds  
Wind Chill: 27°   Ceiling: Unl
Heat Index: 27°   Visibility: 10mi
Dew Point:   Wind: 5mph
Humidity: 25%   Direction: 290°WNW
Pressure: 29.87"   Gusts: NA
Location:  34.21°N, 118.57°W
Report Text: KVNY 211951Z 29004KT 10SM SCT250 27/05 A2987 RMK AO2 SLP108 T02670050
Loading
Personal Weather Stations






























Interactive Weather Map
Tropical Storm Tracking
New forecast layout! Learn more

10-Day Weather Forecast

Advertisements
Track Severe Weather on mobile